sensor_id;sensor_type;location;lat;lon;timestamp;P1;durP1;ratioP1;P2;durP2;ratioP2
30472;SDS011;17263;48.160;11.452;2023-11-22T00:01:10;15.40;;;12.67;;
30472;SDS011;17263;48.160;11.452;2023-11-22T00:03:36;17.33;;;14.10;;
30472;SDS011;17263;48.160;11.452;2023-11-22T00:06:02;17.40;;;14.17;;
30472;SDS011;17263;48.160;11.452;2023-11-22T00:08:28;15.40;;;12.97;;
30472;SDS011;17263;48.160;11.452;2023-11-22T00:10:55;18.03;;;13.70;;
30472;SDS011;17263;48.160;11.452;2023-11-22T00:13:21;15.33;;;13.37;;
30472;SDS011;17263;48.160;11.452;2023-11-22T00:15:47;17.63;;;13.90;;
30472;SDS011;17263;48.160;11.452;2023-11-22T00:18:15;15.80;;;13.57;;
30472;SDS011;17263;48.160;11.452;2023-11-22T00:20:41;17.07;;;14.83;;
30472;SDS011;17263;48.160;11.452;2023-11-22T00:23:07;14.73;;;13.13;;
30472;SDS011;17263;48.160;11.452;2023-11-22T00:25:33;14.27;;;12.60;;
30472;SDS011;17263;48.160;11.452;2023-11-22T00:27:59;16.73;;;13.87;;
30472;SDS011;17263;48.160;11.452;2023-11-22T00:30:26;17.67;;;13.73;;
30472;SDS011;17263;48.160;11.452;2023-11-22T00:32:52;17.23;;;13.67;;
30472;SDS011;17263;48.160;11.452;2023-11-22T00:35:18;15.10;;;13.33;;
30472;SDS011;17263;48.160;11.452;2023-11-22T00:37:44;19.63;;;14.87;;
30472;SDS011;17263;48.160;11.452;2023-11-22T00:40:10;17.93;;;14.17;;
30472;SDS011;17263;48.160;11.452;2023-11-22T00:42:36;17.30;;;14.00;;
30472;SDS011;17263;48.160;11.452;2023-11-22T00:45:05;19.07;;;13.70;;
30472;SDS011;17263;48.160;11.452;2023-11-22T00:47:32;18.10;;;13.83;;
30472;SDS011;17263;48.160;11.452;2023-11-22T00:49:58;18.77;;;13.57;;
30472;SDS011;17263;48.160;11.452;2023-11-22T00:52:25;15.37;;;12.97;;
30472;SDS011;17263;48.160;11.452;2023-11-22T00:54:51;17.83;;;14.43;;
30472;SDS011;17263;48.160;11.452;2023-11-22T00:57:17;18.40;;;14.83;;
30472;SDS011;17263;48.160;11.452;2023-11-22T00:59:43;16.17;;;13.87;;
30472;SDS011;17263;48.160;11.452;2023-11-22T01:02:09;18.50;;;14.20;;
30472;SDS011;17263;48.160;11.452;2023-11-22T01:04:35;18.77;;;13.97;;
30472;SDS011;17263;48.160;11.452;2023-11-22T01:07:02;17.37;;;13.83;;
30472;SDS011;17263;48.160;11.452;2023-11-22T01:09:32;19.20;;;15.20;;
30472;SDS011;17263;48.160;11.452;2023-11-22T01:11:58;20.70;;;15.47;;
30472;SDS011;17263;48.160;11.452;2023-11-22T01:14:25;20.03;;;14.57;;
30472;SDS011;17263;48.160;11.452;2023-11-22T01:16:52;18.40;;;15.00;;
30472;SDS011;17263;48.160;11.452;2023-11-22T01:19:18;18.90;;;15.17;;
30472;SDS011;17263;48.160;11.452;2023-11-22T01:21:44;16.10;;;14.40;;
30472;SDS011;17263;48.160;11.452;2023-11-22T01:24:10;17.60;;;14.93;;
30472;SDS011;17263;48.160;11.452;2023-11-22T01:26:36;20.93;;;15.97;;
30472;SDS011;17263;48.160;11.452;2023-11-22T01:29:04;19.57;;;15.53;;
30472;SDS011;17263;48.160;11.452;2023-11-22T01:31:30;18.33;;;15.53;;
30472;SDS011;17263;48.160;11.452;2023-11-22T01:33:58;21.23;;;15.60;;
30472;SDS011;17263;48.160;11.452;2023-11-22T01:36:25;21.93;;;15.83;;
30472;SDS011;17263;48.160;11.452;2023-11-22T01:38:53;20.67;;;15.23;;
30472;SDS011;17263;48.160;11.452;2023-11-22T01:41:19;18.63;;;15.67;;
30472;SDS011;17263;48.160;11.452;2023-11-22T01:43:45;18.90;;;15.27;;
30472;SDS011;17263;48.160;11.452;2023-11-22T01:46:17;22.80;;;16.67;;
30472;SDS011;17263;48.160;11.452;2023-11-22T01:48:48;21.60;;;16.33;;
30472;SDS011;17263;48.160;11.452;2023-11-22T01:51:14;20.27;;;15.83;;
30472;SDS011;17263;48.160;11.452;2023-11-22T01:53:40;21.23;;;16.17;;
30472;SDS011;17263;48.160;11.452;2023-11-22T01:56:07;20.40;;;16.10;;
30472;SDS011;17263;48.160;11.452;2023-11-22T01:58:35;22.30;;;17.40;;
30472;SDS011;17263;48.160;11.452;2023-11-22T02:01:01;18.27;;;15.40;;
30472;SDS011;17263;48.160;11.452;2023-11-22T02:03:27;19.50;;;15.70;;
30472;SDS011;17263;48.160;11.452;2023-11-22T02:05:54;19.50;;;15.83;;
30472;SDS011;17263;48.160;11.452;2023-11-22T02:08:20;18.07;;;14.70;;
30472;SDS011;17263;48.160;11.452;2023-11-22T02:10:56;14.40;;;12.50;;
30472;SDS011;17263;48.160;11.452;2023-11-22T02:13:23;11.23;;;10.13;;
30472;SDS011;17263;48.160;11.452;2023-11-22T02:15:49;9.80;;;8.67;;
30472;SDS011;17263;48.160;11.452;2023-11-22T02:18:15;8.57;;;7.77;;
30472;SDS011;17263;48.160;11.452;2023-11-22T02:20:42;6.60;;;6.00;;
30472;SDS011;17263;48.160;11.452;2023-11-22T02:23:08;6.63;;;5.80;;
30472;SDS011;17263;48.160;11.452;2023-11-22T02:25:35;5.27;;;4.77;;
30472;SDS011;17263;48.160;11.452;2023-11-22T02:28:01;5.97;;;4.90;;
30472;SDS011;17263;48.160;11.452;2023-11-22T02:30:28;4.73;;;4.33;;
30472;SDS011;17263;48.160;11.452;2023-11-22T02:32:54;6.10;;;4.53;;
30472;SDS011;17263;48.160;11.452;2023-11-22T02:35:20;4.93;;;4.53;;
30472;SDS011;17263;48.160;11.452;2023-11-22T02:37:46;6.03;;;4.80;;
30472;SDS011;17263;48.160;11.452;2023-11-22T02:40:17;4.80;;;4.40;;
30472;SDS011;17263;48.160;11.452;2023-11-22T02:42:50;5.07;;;4.13;;
30472;SDS011;17263;48.160;11.452;2023-11-22T02:45:19;4.90;;;4.10;;
30472;SDS011;17263;48.160;11.452;2023-11-22T02:47:49;6.77;;;4.57;;
30472;SDS011;17263;48.160;11.452;2023-11-22T02:50:16;4.07;;;3.63;;
30472;SDS011;17263;48.160;11.452;2023-11-22T02:52:42;7.00;;;4.23;;
30472;SDS011;17263;48.160;11.452;2023-11-22T02:55:09;4.43;;;3.60;;
30472;SDS011;17263;48.160;11.452;2023-11-22T02:57:35;4.70;;;3.47;;
30472;SDS011;17263;48.160;11.452;2023-11-22T03:00:03;3.50;;;3.20;;
30472;SDS011;17263;48.160;11.452;2023-11-22T03:02:29;4.03;;;3.30;;
30472;SDS011;17263;48.160;11.452;2023-11-22T03:04:57;3.43;;;3.10;;
30472;SDS011;17263;48.160;11.452;2023-11-22T03:07:26;3.50;;;3.20;;
30472;SDS011;17263;48.160;11.452;2023-11-22T03:09:52;3.50;;;3.20;;
30472;SDS011;17263;48.160;11.452;2023-11-22T03:12:19;3.57;;;3.17;;
30472;SDS011;17263;48.160;11.452;2023-11-22T03:14:48;3.00;;;2.70;;
30472;SDS011;17263;48.160;11.452;2023-11-22T03:17:14;3.10;;;2.80;;
30472;SDS011;17263;48.160;11.452;2023-11-22T03:19:41;3.50;;;3.20;;
30472;SDS011;17263;48.160;11.452;2023-11-22T03:22:07;3.20;;;2.90;;
30472;SDS011;17263;48.160;11.452;2023-11-22T03:24:33;3.60;;;3.13;;
30472;SDS011;17263;48.160;11.452;2023-11-22T03:27:03;3.90;;;3.03;;
30472;SDS011;17263;48.160;11.452;2023-11-22T03:29:29;4.43;;;3.53;;
30472;SDS011;17263;48.160;11.452;2023-11-22T03:31:55;3.33;;;3.03;;
30472;SDS011;17263;48.160;11.452;2023-11-22T03:34:21;4.00;;;3.60;;
30472;SDS011;17263;48.160;11.452;2023-11-22T03:36:47;3.50;;;3.20;;
30472;SDS011;17263;48.160;11.452;2023-11-22T03:39:15;3.50;;;3.20;;
30472;SDS011;17263;48.160;11.452;2023-11-22T03:41:41;5.53;;;4.03;;
30472;SDS011;17263;48.160;11.452;2023-11-22T03:44:08;4.60;;;3.83;;
30472;SDS011;17263;48.160;11.452;2023-11-22T03:46:37;4.13;;;3.73;;
30472;SDS011;17263;48.160;11.452;2023-11-22T03:49:04;4.10;;;3.63;;
30472;SDS011;17263;48.160;11.452;2023-11-22T03:51:34;3.90;;;3.50;;
30472;SDS011;17263;48.160;11.452;2023-11-22T03:54:01;4.93;;;4.03;;
30472;SDS011;17263;48.160;11.452;2023-11-22T03:56:28;4.73;;;3.80;;
30472;SDS011;17263;48.160;11.452;2023-11-22T03:58:55;5.67;;;3.70;;
30472;SDS011;17263;48.160;11.452;2023-11-22T04:01:21;4.20;;;3.80;;
30472;SDS011;17263;48.160;11.452;2023-11-22T04:03:47;4.33;;;3.90;;
30472;SDS011;17263;48.160;11.452;2023-11-22T04:06:17;4.37;;;3.97;;
30472;SDS011;17263;48.160;11.452;2023-11-22T04:08:44;4.10;;;3.70;;
30472;SDS011;17263;48.160;11.452;2023-11-22T04:11:14;4.57;;;4.00;;
30472;SDS011;17263;48.160;11.452;2023-11-22T04:13:41;4.20;;;3.70;;
30472;SDS011;17263;48.160;11.452;2023-11-22T04:16:08;4.50;;;3.80;;
30472;SDS011;17263;48.160;11.452;2023-11-22T04:18:40;4.63;;;4.23;;
30472;SDS011;17263;48.160;11.452;2023-11-22T04:21:07;4.40;;;4.00;;
30472;SDS011;17263;48.160;11.452;2023-11-22T04:23:34;4.30;;;3.90;;
30472;SDS011;17263;48.160;11.452;2023-11-22T04:26:02;5.53;;;3.53;;
30472;SDS011;17263;48.160;11.452;2023-11-22T04:28:28;4.47;;;3.63;;
30472;SDS011;17263;48.160;11.452;2023-11-22T04:30:55;4.03;;;3.63;;
30472;SDS011;17263;48.160;11.452;2023-11-22T04:33:25;5.30;;;3.50;;
30472;SDS011;17263;48.160;11.452;2023-11-22T04:35:53;5.30;;;3.53;;
30472;SDS011;17263;48.160;11.452;2023-11-22T04:38:19;3.40;;;3.10;;
30472;SDS011;17263;48.160;11.452;2023-11-22T04:40:45;3.33;;;2.97;;
30472;SDS011;17263;48.160;11.452;2023-11-22T04:43:11;3.20;;;2.90;;
30472;SDS011;17263;48.160;11.452;2023-11-22T04:45:37;3.47;;;3.03;;
30472;SDS011;17263;48.160;11.452;2023-11-22T04:48:04;3.70;;;3.20;;
30472;SDS011;17263;48.160;11.452;2023-11-22T04:50:32;3.37;;;3.03;;
30472;SDS011;17263;48.160;11.452;2023-11-22T04:52:58;3.77;;;3.10;;
30472;SDS011;17263;48.160;11.452;2023-11-22T04:55:27;4.60;;;3.00;;
30472;SDS011;17263;48.160;11.452;2023-11-22T04:57:53;3.03;;;2.73;;
30472;SDS011;17263;48.160;11.452;2023-11-22T05:00:23;3.20;;;2.90;;
30472;SDS011;17263;48.160;11.452;2023-11-22T05:02:49;3.10;;;2.80;;
30472;SDS011;17263;48.160;11.452;2023-11-22T05:05:15;3.57;;;2.97;;
30472;SDS011;17263;48.160;11.452;2023-11-22T05:07:42;3.10;;;2.80;;
30472;SDS011;17263;48.160;11.452;2023-11-22T05:10:10;3.03;;;2.67;;
30472;SDS011;17263;48.160;11.452;2023-11-22T05:12:36;3.40;;;2.90;;
30472;SDS011;17263;48.160;11.452;2023-11-22T05:15:02;3.17;;;2.87;;
30472;SDS011;17263;48.160;11.452;2023-11-22T05:17:28;3.30;;;3.00;;
30472;SDS011;17263;48.160;11.452;2023-11-22T05:19:54;3.00;;;2.70;;
30472;SDS011;17263;48.160;11.452;2023-11-22T05:22:20;3.10;;;2.80;;
30472;SDS011;17263;48.160;11.452;2023-11-22T05:24:46;3.40;;;2.70;;
30472;SDS011;17263;48.160;11.452;2023-11-22T05:27:13;3.10;;;2.70;;
30472;SDS011;17263;48.160;11.452;2023-11-22T05:29:39;3.30;;;3.00;;
30472;SDS011;17263;48.160;11.452;2023-11-22T05:32:05;3.53;;;2.87;;
30472;SDS011;17263;48.160;11.452;2023-11-22T05:34:32;2.87;;;2.67;;
30472;SDS011;17263;48.160;11.452;2023-11-22T05:36:58;2.83;;;2.53;;
30472;SDS011;17263;48.160;11.452;2023-11-22T05:39:24;4.10;;;3.03;;
30472;SDS011;17263;48.160;11.452;2023-11-22T05:41:51;3.23;;;2.93;;
30472;SDS011;17263;48.160;11.452;2023-11-22T05:44:17;3.17;;;2.87;;
30472;SDS011;17263;48.160;11.452;2023-11-22T05:46:44;2.90;;;2.60;;
30472;SDS011;17263;48.160;11.452;2023-11-22T05:49:09;3.63;;;2.97;;
30472;SDS011;17263;48.160;11.452;2023-11-22T05:51:36;3.23;;;2.93;;
30472;SDS011;17263;48.160;11.452;2023-11-22T05:54:06;3.23;;;2.93;;
30472;SDS011;17263;48.160;11.452;2023-11-22T05:56:32;4.20;;;3.10;;
30472;SDS011;17263;48.160;11.452;2023-11-22T05:58:58;6.10;;;3.10;;
30472;SDS011;17263;48.160;11.452;2023-11-22T06:01:25;3.83;;;3.30;;
30472;SDS011;17263;48.160;11.452;2023-11-22T06:03:54;3.30;;;3.00;;
30472;SDS011;17263;48.160;11.452;2023-11-22T06:06:20;3.20;;;2.90;;
30472;SDS011;17263;48.160;11.452;2023-11-22T06:08:49;3.20;;;2.90;;
30472;SDS011;17263;48.160;11.452;2023-11-22T06:11:15;3.40;;;3.10;;
30472;SDS011;17263;48.160;11.452;2023-11-22T06:13:41;3.63;;;2.97;;
30472;SDS011;17263;48.160;11.452;2023-11-22T06:16:12;3.63;;;3.33;;
30472;SDS011;17263;48.160;11.452;2023-11-22T06:18:38;4.03;;;3.13;;
30472;SDS011;17263;48.160;11.452;2023-11-22T06:21:06;4.97;;;3.40;;
30472;SDS011;17263;48.160;11.452;2023-11-22T06:23:33;4.20;;;3.80;;
30472;SDS011;17263;48.160;11.452;2023-11-22T06:25:59;5.10;;;4.10;;
30472;SDS011;17263;48.160;11.452;2023-11-22T06:28:25;6.03;;;5.23;;
30472;SDS011;17263;48.160;11.452;2023-11-22T06:30:51;7.40;;;5.07;;
30472;SDS011;17263;48.160;11.452;2023-11-22T06:33:17;7.37;;;5.37;;
30472;SDS011;17263;48.160;11.452;2023-11-22T06:35:43;7.30;;;4.83;;
30472;SDS011;17263;48.160;11.452;2023-11-22T06:38:09;5.67;;;4.30;;
30472;SDS011;17263;48.160;11.452;2023-11-22T06:40:35;5.00;;;4.50;;
30472;SDS011;17263;48.160;11.452;2023-11-22T06:43:01;3.83;;;3.43;;
30472;SDS011;17263;48.160;11.452;2023-11-22T06:45:30;4.50;;;3.60;;
30472;SDS011;17263;48.160;11.452;2023-11-22T06:47:59;3.77;;;3.17;;
30472;SDS011;17263;48.160;11.452;2023-11-22T06:50:25;3.10;;;2.80;;
30472;SDS011;17263;48.160;11.452;2023-11-22T06:52:51;3.63;;;3.13;;
30472;SDS011;17263;48.160;11.452;2023-11-22T06:55:18;3.47;;;3.10;;
30472;SDS011;17263;48.160;11.452;2023-11-22T06:57:45;4.10;;;3.70;;
30472;SDS011;17263;48.160;11.452;2023-11-22T07:00:11;4.00;;;3.53;;
30472;SDS011;17263;48.160;11.452;2023-11-22T07:02:38;3.57;;;3.27;;
30472;SDS011;17263;48.160;11.452;2023-11-22T07:05:06;4.47;;;3.13;;
30472;SDS011;17263;48.160;11.452;2023-11-22T07:07:36;3.80;;;3.40;;
30472;SDS011;17263;48.160;11.452;2023-11-22T07:10:02;3.63;;;3.33;;
30472;SDS011;17263;48.160;11.452;2023-11-22T07:12:31;4.07;;;3.67;;
30472;SDS011;17263;48.160;11.452;2023-11-22T07:15:01;3.60;;;3.30;;
30472;SDS011;17263;48.160;11.452;2023-11-22T07:17:28;4.33;;;3.93;;
30472;SDS011;17263;48.160;11.452;2023-11-22T07:19:54;5.37;;;3.73;;
30472;SDS011;17263;48.160;11.452;2023-11-22T07:22:21;4.07;;;3.67;;
30472;SDS011;17263;48.160;11.452;2023-11-22T07:24:49;4.77;;;3.97;;
30472;SDS011;17263;48.160;11.452;2023-11-22T07:27:25;4.30;;;3.90;;
30472;SDS011;17263;48.160;11.452;2023-11-22T07:29:54;4.53;;;4.13;;
30472;SDS011;17263;48.160;11.452;2023-11-22T07:32:20;4.73;;;4.33;;
30472;SDS011;17263;48.160;11.452;2023-11-22T07:34:46;7.23;;;4.10;;
30472;SDS011;17263;48.160;11.452;2023-11-22T07:37:12;4.33;;;3.77;;
30472;SDS011;17263;48.160;11.452;2023-11-22T07:39:40;5.07;;;4.53;;
30472;SDS011;17263;48.160;11.452;2023-11-22T07:42:08;5.23;;;4.37;;
30472;SDS011;17263;48.160;11.452;2023-11-22T07:44:34;4.70;;;4.30;;
30472;SDS011;17263;48.160;11.452;2023-11-22T07:47:03;4.63;;;4.23;;
30472;SDS011;17263;48.160;11.452;2023-11-22T07:49:33;5.33;;;4.83;;
30472;SDS011;17263;48.160;11.452;2023-11-22T07:52:02;5.30;;;4.80;;
30472;SDS011;17263;48.160;11.452;2023-11-22T07:54:30;5.40;;;4.90;;
30472;SDS011;17263;48.160;11.452;2023-11-22T07:56:56;5.90;;;5.30;;
30472;SDS011;17263;48.160;11.452;2023-11-22T07:59:23;6.00;;;5.40;;
30472;SDS011;17263;48.160;11.452;2023-11-22T08:01:49;6.03;;;5.43;;
30472;SDS011;17263;48.160;11.452;2023-11-22T08:04:15;5.97;;;4.97;;
30472;SDS011;17263;48.160;11.452;2023-11-22T08:06:44;5.73;;;5.13;;
30472;SDS011;17263;48.160;11.452;2023-11-22T08:09:11;5.60;;;5.10;;
30472;SDS011;17263;48.160;11.452;2023-11-22T08:11:37;5.47;;;4.87;;
30472;SDS011;17263;48.160;11.452;2023-11-22T08:14:03;5.80;;;5.20;;
30472;SDS011;17263;48.160;11.452;2023-11-22T08:16:29;6.33;;;5.30;;
30472;SDS011;17263;48.160;11.452;2023-11-22T08:18:55;6.93;;;5.70;;
30472;SDS011;17263;48.160;11.452;2023-11-22T08:21:22;6.57;;;5.70;;
30472;SDS011;17263;48.160;11.452;2023-11-22T08:23:48;6.87;;;5.23;;
30472;SDS011;17263;48.160;11.452;2023-11-22T08:26:15;5.87;;;5.20;;
30472;SDS011;17263;48.160;11.452;2023-11-22T08:28:41;5.90;;;5.17;;
30472;SDS011;17263;48.160;11.452;2023-11-22T08:31:08;6.33;;;5.73;;
30472;SDS011;17263;48.160;11.452;2023-11-22T08:33:37;5.70;;;5.20;;
30472;SDS011;17263;48.160;11.452;2023-11-22T08:36:07;6.33;;;5.20;;
30472;SDS011;17263;48.160;11.452;2023-11-22T08:38:37;5.80;;;5.20;;
30472;SDS011;17263;48.160;11.452;2023-11-22T08:41:06;5.90;;;5.30;;
30472;SDS011;17263;48.160;11.452;2023-11-22T08:43:33;6.83;;;5.70;;
30472;SDS011;17263;48.160;11.452;2023-11-22T08:45:59;5.80;;;5.10;;
30472;SDS011;17263;48.160;11.452;2023-11-22T08:48:26;5.57;;;5.00;;
30472;SDS011;17263;48.160;11.452;2023-11-22T08:50:53;5.50;;;5.00;;
30472;SDS011;17263;48.160;11.452;2023-11-22T08:53:21;6.53;;;4.93;;
30472;SDS011;17263;48.160;11.452;2023-11-22T08:55:47;5.43;;;4.10;;
30472;SDS011;17263;48.160;11.452;2023-11-22T08:58:13;4.70;;;4.30;;
30472;SDS011;17263;48.160;11.452;2023-11-22T09:00:39;5.20;;;4.70;;
30472;SDS011;17263;48.160;11.452;2023-11-22T09:03:07;4.70;;;4.30;;
30472;SDS011;17263;48.160;11.452;2023-11-22T09:05:34;5.47;;;4.40;;
30472;SDS011;17263;48.160;11.452;2023-11-22T09:08:00;5.07;;;4.40;;
30472;SDS011;17263;48.160;11.452;2023-11-22T09:10:26;5.03;;;4.50;;
30472;SDS011;17263;48.160;11.452;2023-11-22T09:12:52;5.83;;;4.40;;
30472;SDS011;17263;48.160;11.452;2023-11-22T09:15:18;4.73;;;4.23;;
30472;SDS011;17263;48.160;11.452;2023-11-22T09:17:51;4.87;;;4.23;;
30472;SDS011;17263;48.160;11.452;2023-11-22T09:20:19;4.70;;;4.27;;
30472;SDS011;17263;48.160;11.452;2023-11-22T09:22:46;4.73;;;4.27;;
30472;SDS011;17263;48.160;11.452;2023-11-22T09:25:26;5.07;;;4.57;;
30472;SDS011;17263;48.160;11.452;2023-11-22T09:27:56;4.73;;;4.33;;
30472;SDS011;17263;48.160;11.452;2023-11-22T09:30:26;5.07;;;4.57;;
30472;SDS011;17263;48.160;11.452;2023-11-22T09:33:09;5.30;;;4.60;;
30472;SDS011;17263;48.160;11.452;2023-11-22T09:35:44;5.80;;;4.40;;
30472;SDS011;17263;48.160;11.452;2023-11-22T09:38:12;5.00;;;4.50;;
30472;SDS011;17263;48.160;11.452;2023-11-22T09:40:42;4.73;;;4.23;;
30472;SDS011;17263;48.160;11.452;2023-11-22T09:43:12;4.27;;;3.87;;
30472;SDS011;17263;48.160;11.452;2023-11-22T09:45:43;4.77;;;4.37;;
30472;SDS011;17263;48.160;11.452;2023-11-22T09:48:16;4.50;;;4.00;;
30472;SDS011;17263;48.160;11.452;2023-11-22T09:53:40;5.33;;;4.00;;
30472;SDS011;17263;48.160;11.452;2023-11-22T09:56:10;5.80;;;4.03;;
30472;SDS011;17263;48.160;11.452;2023-11-22T09:58:40;4.20;;;3.80;;
30472;SDS011;17263;48.160;11.452;2023-11-22T10:01:13;4.47;;;4.07;;
30472;SDS011;17263;48.160;11.452;2023-11-22T10:03:39;4.93;;;4.00;;
30472;SDS011;17263;48.160;11.452;2023-11-22T10:06:06;4.00;;;3.60;;
30472;SDS011;17263;48.160;11.452;2023-11-22T10:08:32;4.37;;;3.97;;
30472;SDS011;17263;48.160;11.452;2023-11-22T10:10:59;3.87;;;3.57;;
30472;SDS011;17263;48.160;11.452;2023-11-22T10:13:25;4.30;;;3.90;;
30472;SDS011;17263;48.160;11.452;2023-11-22T10:15:52;4.30;;;3.90;;
30472;SDS011;17263;48.160;11.452;2023-11-22T10:18:19;5.30;;;3.73;;
30472;SDS011;17263;48.160;11.452;2023-11-22T10:20:46;4.40;;;3.83;;
30472;SDS011;17263;48.160;11.452;2023-11-22T10:23:14;4.60;;;4.17;;
30472;SDS011;17263;48.160;11.452;2023-11-22T10:25:48;4.00;;;3.60;;
30472;SDS011;17263;48.160;11.452;2023-11-22T10:28:20;4.00;;;3.60;;
30472;SDS011;17263;48.160;11.452;2023-11-22T10:30:47;4.10;;;3.70;;
30472;SDS011;17263;48.160;11.452;2023-11-22T10:33:15;4.00;;;3.60;;
30472;SDS011;17263;48.160;11.452;2023-11-22T10:35:45;3.97;;;3.60;;
30472;SDS011;17263;48.160;11.452;2023-11-22T10:38:15;3.93;;;3.63;;
30472;SDS011;17263;48.160;11.452;2023-11-22T10:40:42;4.20;;;3.80;;
30472;SDS011;17263;48.160;11.452;2023-11-22T10:43:13;4.67;;;3.80;;
30472;SDS011;17263;48.160;11.452;2023-11-22T10:45:40;4.97;;;3.70;;
30472;SDS011;17263;48.160;11.452;2023-11-22T10:48:14;6.73;;;4.03;;
30472;SDS011;17263;48.160;11.452;2023-11-22T10:50:44;5.00;;;4.10;;
30472;SDS011;17263;48.160;11.452;2023-11-22T10:53:15;5.10;;;3.30;;
30472;SDS011;17263;48.160;11.452;2023-11-22T10:55:45;3.40;;;3.10;;
30472;SDS011;17263;48.160;11.452;2023-11-22T10:58:13;3.60;;;3.30;;
30472;SDS011;17263;48.160;11.452;2023-11-22T11:00:41;3.70;;;3.40;;
30472;SDS011;17263;48.160;11.452;2023-11-22T11:03:17;4.90;;;3.50;;
30472;SDS011;17263;48.160;11.452;2023-11-22T11:05:50;3.73;;;3.40;;
30472;SDS011;17263;48.160;11.452;2023-11-22T11:08:19;3.37;;;3.07;;
30472;SDS011;17263;48.160;11.452;2023-11-22T11:10:48;4.13;;;3.80;;
30472;SDS011;17263;48.160;11.452;2023-11-22T11:13:15;3.87;;;3.50;;
30472;SDS011;17263;48.160;11.452;2023-11-22T11:15:41;4.30;;;3.70;;
30472;SDS011;17263;48.160;11.452;2023-11-22T11:18:14;4.57;;;3.80;;
30472;SDS011;17263;48.160;11.452;2023-11-22T11:20:59;5.53;;;3.70;;
30472;SDS011;17263;48.160;11.452;2023-11-22T11:23:33;3.90;;;3.60;;
30472;SDS011;17263;48.160;11.452;2023-11-22T11:26:08;4.47;;;4.07;;
30472;SDS011;17263;48.160;11.452;2023-11-22T11:28:45;4.80;;;3.57;;
30472;SDS011;17263;48.160;11.452;2023-11-22T11:31:15;6.03;;;3.63;;
30472;SDS011;17263;48.160;11.452;2023-11-22T11:36:29;5.80;;;3.87;;
30472;SDS011;17263;48.160;11.452;2023-11-22T11:39:00;4.43;;;3.80;;
30472;SDS011;17263;48.160;11.452;2023-11-22T11:41:31;4.83;;;3.70;;
30472;SDS011;17263;48.160;11.452;2023-11-22T11:43:59;4.00;;;3.60;;
30472;SDS011;17263;48.160;11.452;2023-11-22T11:46:27;4.40;;;3.90;;
30472;SDS011;17263;48.160;11.452;2023-11-22T11:48:55;4.07;;;3.67;;
30472;SDS011;17263;48.160;11.452;2023-11-22T11:51:22;3.97;;;3.60;;
30472;SDS011;17263;48.160;11.452;2023-11-22T11:53:50;3.73;;;3.40;;
30472;SDS011;17263;48.160;11.452;2023-11-22T11:56:16;4.33;;;3.93;;
30472;SDS011;17263;48.160;11.452;2023-11-22T11:58:46;3.53;;;3.23;;
30472;SDS011;17263;48.160;11.452;2023-11-22T12:01:13;3.70;;;3.40;;
30472;SDS011;17263;48.160;11.452;2023-11-22T12:03:42;4.07;;;3.50;;
30472;SDS011;17263;48.160;11.452;2023-11-22T12:06:15;3.97;;;3.67;;
30472;SDS011;17263;48.160;11.452;2023-11-22T12:08:42;3.70;;;3.40;;
30472;SDS011;17263;48.160;11.452;2023-11-22T12:11:13;4.30;;;3.80;;
30472;SDS011;17263;48.160;11.452;2023-11-22T12:13:41;3.80;;;3.40;;
30472;SDS011;17263;48.160;11.452;2023-11-22T12:16:14;4.20;;;3.43;;
30472;SDS011;17263;48.160;11.452;2023-11-22T12:18:47;3.50;;;3.20;;
30472;SDS011;17263;48.160;11.452;2023-11-22T12:21:15;3.87;;;3.47;;
30472;SDS011;17263;48.160;11.452;2023-11-22T12:23:43;4.00;;;3.60;;
30472;SDS011;17263;48.160;11.452;2023-11-22T12:26:11;3.90;;;3.50;;
30472;SDS011;17263;48.160;11.452;2023-11-22T12:28:38;4.00;;;3.50;;
30472;SDS011;17263;48.160;11.452;2023-11-22T12:31:06;4.70;;;3.40;;
30472;SDS011;17263;48.160;11.452;2023-11-22T12:33:36;3.53;;;3.10;;
30472;SDS011;17263;48.160;11.452;2023-11-22T12:36:03;3.57;;;3.27;;
30472;SDS011;17263;48.160;11.452;2023-11-22T12:38:30;4.10;;;3.63;;
30472;SDS011;17263;48.160;11.452;2023-11-22T12:40:59;3.90;;;3.60;;
30472;SDS011;17263;48.160;11.452;2023-11-22T12:43:27;3.70;;;3.37;;
30472;SDS011;17263;48.160;11.452;2023-11-22T12:46:06;4.03;;;3.63;;
30472;SDS011;17263;48.160;11.452;2023-11-22T12:48:33;4.33;;;3.93;;
30472;SDS011;17263;48.160;11.452;2023-11-22T12:51:01;3.87;;;3.53;;
30472;SDS011;17263;48.160;11.452;2023-11-22T12:53:27;4.20;;;3.80;;
30472;SDS011;17263;48.160;11.452;2023-11-22T12:55:54;5.20;;;4.10;;
30472;SDS011;17263;48.160;11.452;2023-11-22T12:58:22;4.33;;;3.93;;
30472;SDS011;17263;48.160;11.452;2023-11-22T13:00:50;4.73;;;4.30;;
30472;SDS011;17263;48.160;11.452;2023-11-22T13:03:24;5.17;;;4.33;;
30472;SDS011;17263;48.160;11.452;2023-11-22T13:05:51;4.53;;;4.13;;
30472;SDS011;17263;48.160;11.452;2023-11-22T13:08:17;4.77;;;3.97;;
30472;SDS011;17263;48.160;11.452;2023-11-22T13:10:44;4.33;;;3.93;;
30472;SDS011;17263;48.160;11.452;2023-11-22T13:13:13;5.07;;;4.00;;
30472;SDS011;17263;48.160;11.452;2023-11-22T13:15:39;4.50;;;4.10;;
30472;SDS011;17263;48.160;11.452;2023-11-22T13:18:06;4.33;;;3.93;;
30472;SDS011;17263;48.160;11.452;2023-11-22T13:20:34;3.97;;;3.67;;
30472;SDS011;17263;48.160;11.452;2023-11-22T13:23:00;4.77;;;4.17;;
30472;SDS011;17263;48.160;11.452;2023-11-22T13:25:28;4.40;;;4.00;;
30472;SDS011;17263;48.160;11.452;2023-11-22T13:27:54;4.40;;;4.00;;
30472;SDS011;17263;48.160;11.452;2023-11-22T13:30:22;7.00;;;4.43;;
30472;SDS011;17263;48.160;11.452;2023-11-22T13:32:52;4.60;;;4.20;;
30472;SDS011;17263;48.160;11.452;2023-11-22T13:35:19;4.50;;;4.10;;
30472;SDS011;17263;48.160;11.452;2023-11-22T13:37:47;3.97;;;3.57;;
30472;SDS011;17263;48.160;11.452;2023-11-22T13:40:14;4.37;;;3.97;;
30472;SDS011;17263;48.160;11.452;2023-11-22T13:42:45;4.20;;;3.80;;
30472;SDS011;17263;48.160;11.452;2023-11-22T13:45:13;4.37;;;3.97;;
30472;SDS011;17263;48.160;11.452;2023-11-22T13:47:43;5.10;;;4.60;;
30472;SDS011;17263;48.160;11.452;2023-11-22T13:50:12;4.70;;;4.13;;
30472;SDS011;17263;48.160;11.452;2023-11-22T13:52:47;4.70;;;4.30;;
30472;SDS011;17263;48.160;11.452;2023-11-22T13:55:14;4.40;;;4.00;;
30472;SDS011;17263;48.160;11.452;2023-11-22T13:57:43;4.43;;;4.00;;
30472;SDS011;17263;48.160;11.452;2023-11-22T14:00:09;5.07;;;4.30;;
30472;SDS011;17263;48.160;11.452;2023-11-22T14:02:47;4.40;;;3.97;;
30472;SDS011;17263;48.160;11.452;2023-11-22T14:05:14;4.30;;;3.90;;
30472;SDS011;17263;48.160;11.452;2023-11-22T14:07:41;4.23;;;3.80;;
30472;SDS011;17263;48.160;11.452;2023-11-22T14:10:07;4.47;;;4.07;;
30472;SDS011;17263;48.160;11.452;2023-11-22T14:12:34;4.70;;;4.30;;
30472;SDS011;17263;48.160;11.452;2023-11-22T14:15:01;4.63;;;4.10;;
30472;SDS011;17263;48.160;11.452;2023-11-22T14:17:30;4.70;;;4.07;;
30472;SDS011;17263;48.160;11.452;2023-11-22T14:19:56;4.87;;;3.60;;
30472;SDS011;17263;48.160;11.452;2023-11-22T14:22:22;4.53;;;4.13;;
30472;SDS011;17263;48.160;11.452;2023-11-22T14:24:49;4.87;;;4.37;;
30472;SDS011;17263;48.160;11.452;2023-11-22T14:27:16;5.17;;;4.67;;
30472;SDS011;17263;48.160;11.452;2023-11-22T14:29:43;5.00;;;4.50;;
30472;SDS011;17263;48.160;11.452;2023-11-22T14:32:13;4.97;;;4.37;;
30472;SDS011;17263;48.160;11.452;2023-11-22T14:34:39;4.70;;;4.30;;
30472;SDS011;17263;48.160;11.452;2023-11-22T14:37:07;4.90;;;4.40;;
30472;SDS011;17263;48.160;11.452;2023-11-22T14:39:33;4.63;;;4.13;;